createdAt,value
2023-04-20T00:00:39.852Z,13.75
2023-04-20T00:05:41.453Z,12.20
2023-04-20T00:10:45.176Z,15.00
2023-04-20T00:15:46.772Z,13.40
2023-04-20T00:20:48.528Z,14.93
2023-04-20T00:25:51.707Z,16.88
2023-04-20T00:30:53.338Z,12.05
2023-04-20T00:35:56.427Z,14.55
2023-04-20T00:40:58.750Z,13.55
2023-04-20T00:46:00.622Z,14.98
2023-04-20T00:51:02.427Z,15.30
2023-04-20T00:56:04.981Z,12.30
2023-04-20T01:01:08.883Z,17.33
2023-04-20T01:06:11.046Z,14.55
2023-04-20T01:11:12.872Z,14.15
2023-04-20T01:16:14.686Z,14.60
2023-04-20T01:21:21.866Z,13.88
2023-04-20T01:26:25.253Z,15.45
2023-04-20T01:31:27.311Z,13.65
2023-04-20T01:36:28.956Z,16.02
2023-04-20T01:41:30.557Z,12.07
2023-04-20T01:46:32.271Z,12.63
2023-04-20T01:51:35.465Z,16.45
2023-04-20T01:56:37.134Z,14.18
2023-04-20T02:01:38.951Z,17.83
2023-04-20T02:06:41.096Z,15.77
2023-04-20T02:11:44.339Z,13.75
2023-04-20T02:16:46.806Z,12.45
2023-04-20T02:21:48.643Z,15.63
2023-04-20T02:26:50.576Z,13.27
2023-04-20T02:31:52.513Z,14.52
2023-04-20T02:36:54.399Z,14.93
2023-04-20T02:41:56.859Z,15.02
2023-04-20T02:46:58.782Z,14.55
2023-04-20T02:52:01.238Z,15.75
2023-04-20T02:57:03.698Z,15.48
2023-04-20T03:02:05.739Z,14.65
2023-04-20T03:07:07.894Z,14.77
2023-04-20T03:12:11.670Z,16.30
2023-04-20T03:17:28.262Z,15.43
2023-04-20T03:22:30.306Z,17.02
2023-04-20T03:27:35.319Z,15.30
2023-04-20T03:32:45.305Z,17.05
2023-04-20T03:37:47.153Z,18.30
2023-04-20T03:42:48.804Z,20.05
2023-04-20T03:47:50.493Z,18.45
2023-04-20T03:52:52.137Z,17.80
2023-04-20T03:57:55.024Z,21.75
2023-04-20T04:02:57.729Z,22.98
2023-04-20T04:08:02.615Z,19.85
2023-04-20T04:13:04.990Z,19.67
2023-04-20T04:18:06.939Z,19.55
2023-04-20T04:23:10.530Z,25.52
2023-04-20T04:28:20.023Z,23.40
2023-04-20T04:33:34.704Z,20.20
2023-04-20T04:38:37.862Z,20.30
2023-04-20T04:43:41.552Z,21.20
2023-04-20T04:49:02.835Z,19.00
2023-04-20T04:54:04.846Z,22.23
2023-04-20T04:59:06.696Z,20.65
2023-04-20T05:04:08.614Z,23.33
2023-04-20T05:09:10.405Z,23.67
2023-04-20T05:14:12.053Z,21.75
2023-04-20T05:19:13.682Z,27.08
2023-04-20T05:24:15.662Z,21.85
2023-04-20T05:29:17.668Z,25.17
2023-04-20T05:34:19.543Z,26.55
2023-04-20T05:39:21.220Z,21.80
2023-04-20T05:44:22.828Z,24.10
2023-04-20T05:49:24.395Z,25.45
2023-04-20T05:54:28.265Z,20.85
2023-04-20T05:59:29.914Z,24.75
2023-04-20T06:04:32.097Z,25.42
2023-04-20T06:09:33.924Z,24.23
2023-04-20T06:14:35.560Z,28.75
2023-04-20T06:19:37.305Z,27.75
2023-04-20T06:24:38.947Z,24.60
2023-04-20T06:29:40.628Z,24.30
2023-04-20T06:34:42.231Z,27.17
2023-04-20T06:39:43.911Z,24.75
2023-04-20T06:44:45.827Z,25.48
2023-04-20T06:49:47.496Z,29.05
2023-04-20T06:54:49.118Z,22.92
2023-04-20T06:59:50.716Z,25.85
2023-04-20T07:04:52.505Z,21.40
2023-04-20T07:09:54.368Z,28.98
2023-04-20T07:14:56.230Z,26.55
2023-04-20T07:19:59.062Z,26.20
2023-04-20T07:25:05.264Z,21.45
2023-04-20T07:30:08.935Z,23.42
2023-04-20T07:35:11.316Z,22.17
2023-04-20T07:40:13.037Z,21.95
2023-04-20T07:45:14.809Z,22.63
2023-04-20T07:50:16.522Z,26.08
2023-04-20T07:55:18.459Z,22.35
2023-04-20T08:00:20.703Z,19.75
2023-04-20T08:05:22.534Z,25.33
2023-04-20T08:10:24.650Z,21.25
2023-04-20T08:15:26.322Z,20.63
2023-04-20T08:20:28.029Z,18.58
2023-04-20T08:25:29.814Z,19.20
2023-04-20T08:30:31.603Z,19.00
2023-04-20T08:35:33.423Z,21.23
2023-04-20T08:40:38.975Z,18.20
2023-04-20T08:45:44.206Z,18.55
2023-04-20T08:50:47.136Z,19.35
2023-04-20T08:55:49.873Z,19.75
2023-04-20T09:00:51.522Z,17.15
2023-04-20T09:05:53.168Z,19.08
2023-04-20T09:10:54.846Z,18.50
2023-04-20T09:15:56.575Z,16.92
2023-04-20T09:21:07.892Z,21.40
2023-04-20T09:26:18.688Z,21.80
2023-04-20T09:31:21.908Z,18.40
2023-04-20T09:36:24.320Z,25.15
2023-04-20T09:41:25.998Z,16.85
2023-04-20T09:46:32.505Z,20.42
2023-04-20T09:51:36.568Z,20.60
2023-04-20T09:56:38.637Z,25.98
2023-04-20T10:01:40.370Z,19.38
2023-04-20T10:06:55.829Z,17.38
2023-04-20T10:12:08.901Z,18.88
2023-04-20T10:17:11.471Z,19.67
2023-04-20T10:22:26.197Z,19.30
2023-04-20T10:27:28.344Z,21.42
2023-04-20T10:32:30.089Z,17.38
2023-04-20T10:37:32.343Z,16.08
2023-04-20T10:42:46.560Z,14.32
2023-04-20T10:47:48.239Z,15.18
2023-04-20T10:52:49.914Z,15.43
2023-04-20T10:57:52.305Z,14.48
2023-04-20T11:02:58.886Z,13.50
2023-04-20T11:08:01.377Z,13.88
2023-04-20T11:13:03.030Z,12.32
2023-04-20T11:18:09.191Z,15.55
2023-04-20T11:23:11.235Z,17.77
2023-04-20T11:28:12.828Z,16.98
2023-04-20T11:33:14.757Z,14.98
2023-04-20T11:38:27.630Z,15.27
2023-04-20T11:43:29.397Z,15.60
2023-04-20T11:48:31.545Z,15.50
2023-04-20T11:53:33.360Z,18.45
2023-04-20T11:58:35.509Z,14.35
2023-04-20T12:03:37.566Z,14.32
2023-04-20T12:08:39.477Z,16.38
2023-04-20T12:13:41.085Z,12.40
2023-04-20T12:18:42.981Z,14.57
2023-04-20T12:23:44.868Z,14.88
2023-04-20T12:28:46.488Z,12.57
2023-04-20T12:33:48.084Z,10.50
2023-04-20T12:38:52.928Z,13.48
2023-04-20T12:43:54.554Z,13.00
2023-04-20T12:48:56.297Z,11.07
2023-04-20T12:53:58.062Z,12.25
2023-04-20T12:58:59.860Z,11.05
2023-04-20T13:04:01.934Z,11.40
2023-04-20T13:09:04.436Z,11.55
2023-04-20T13:14:06.282Z,10.65
2023-04-20T13:19:08.230Z,11.02
2023-04-20T13:24:10.140Z,11.20
2023-04-20T13:29:11.870Z,12.15
2023-04-20T13:34:13.552Z,11.70
2023-04-20T13:39:15.960Z,11.88
2023-04-20T13:44:17.999Z,10.77
2023-04-20T13:49:22.656Z,9.80
2023-04-20T13:54:24.539Z,11.35
2023-04-20T13:59:26.156Z,10.70
2023-04-20T14:04:27.794Z,10.73
2023-04-20T14:09:31.297Z,10.50
2023-04-20T14:14:33.401Z,12.07
2023-04-20T14:19:35.104Z,11.77
2023-04-20T14:24:36.748Z,13.63
2023-04-20T14:29:38.367Z,10.95
2023-04-20T14:34:39.953Z,11.52
2023-04-20T14:39:41.567Z,10.18
2023-04-20T14:44:43.244Z,12.68
2023-04-20T14:49:44.860Z,12.40
2023-04-20T14:54:46.480Z,13.73
2023-04-20T14:59:48.137Z,14.98
2023-04-20T15:04:50.510Z,11.80
2023-04-20T15:09:52.295Z,11.15
2023-04-20T15:14:54.105Z,9.77
2023-04-20T15:19:55.764Z,9.45
2023-04-20T15:24:57.595Z,12.23
2023-04-20T15:29:59.248Z,10.93
2023-04-20T15:35:01.367Z,13.25
2023-04-20T15:40:04.013Z,11.50
2023-04-20T15:45:06.401Z,11.82
2023-04-20T15:50:08.567Z,10.60
2023-04-20T15:55:10.977Z,16.10
2023-04-20T16:00:13.676Z,10.23
2023-04-20T16:05:15.468Z,11.65
2023-04-20T16:10:17.182Z,12.15
2023-04-20T16:15:19.565Z,11.70
2023-04-20T16:20:21.255Z,11.82
2023-04-20T16:25:23.273Z,11.77
2023-04-20T16:30:25.147Z,11.55
2023-04-20T16:35:26.864Z,11.13
2023-04-20T16:40:28.580Z,9.63
2023-04-20T16:45:30.606Z,9.98
2023-04-20T16:50:32.489Z,9.68
2023-04-20T16:55:34.231Z,11.30
2023-04-20T17:00:37.006Z,8.77
2023-04-20T17:05:41.598Z,10.55
2023-04-20T17:10:43.855Z,10.13
2023-04-20T17:15:46.327Z,10.23
2023-04-20T17:20:48.578Z,9.48
2023-04-20T17:25:51.328Z,8.40
2023-04-20T17:30:52.964Z,8.27
2023-04-20T17:35:56.895Z,12.27
2023-04-20T17:40:58.502Z,10.18
2023-04-20T17:46:00.770Z,10.38
2023-04-20T17:51:02.580Z,11.45
2023-04-20T17:56:06.218Z,8.80
2023-04-20T18:01:07.829Z,10.27
2023-04-20T18:06:09.460Z,9.25
2023-04-20T18:11:11.457Z,9.20
2023-04-20T18:16:13.190Z,14.23
2023-04-20T18:21:15.356Z,9.70
2023-04-20T18:26:20.501Z,10.90
2023-04-20T18:31:22.199Z,9.80
2023-04-20T18:36:24.159Z,10.65
2023-04-20T18:41:27.470Z,12.95
2023-04-20T18:46:29.402Z,10.60
2023-04-20T18:51:32.078Z,11.25
2023-04-20T18:56:33.792Z,11.77
2023-04-20T19:01:40.297Z,12.90
2023-04-20T19:06:42.235Z,14.95
2023-04-20T19:11:43.940Z,12.05
2023-04-20T19:16:45.659Z,9.70
2023-04-20T19:21:48.348Z,13.30
2023-04-20T19:26:49.935Z,11.43
2023-04-20T19:31:52.014Z,13.10
2023-04-20T19:36:54.157Z,10.35
2023-04-20T19:41:55.808Z,11.65
2023-04-20T19:46:57.379Z,13.50
2023-04-20T19:51:59.065Z,14.27
2023-04-20T19:57:01.270Z,19.67
2023-04-20T20:02:03.587Z,18.70
2023-04-20T20:07:05.391Z,19.52
2023-04-20T20:12:08.542Z,21.33
2023-04-20T20:17:10.679Z,21.65
2023-04-20T20:22:12.263Z,23.33
2023-04-20T20:27:14.015Z,18.58
2023-04-20T20:32:15.875Z,15.95
2023-04-20T20:37:17.571Z,19.92
2023-04-20T20:42:19.270Z,19.05
2023-04-20T20:47:20.988Z,14.30
2023-04-20T20:52:23.010Z,16.20
2023-04-20T20:57:24.603Z,18.50
2023-04-20T21:02:26.448Z,16.98
2023-04-20T21:07:28.318Z,14.15
2023-04-20T21:12:30.296Z,13.70
2023-04-20T21:17:32.036Z,13.00
2023-04-20T21:22:33.875Z,13.48
2023-04-20T21:27:35.647Z,13.45
2023-04-20T21:32:37.279Z,9.40
2023-04-20T21:37:38.932Z,12.77
2023-04-20T21:42:40.552Z,10.30
2023-04-20T21:47:42.259Z,9.55
2023-04-20T21:52:43.937Z,13.55
2023-04-20T21:57:45.566Z,14.00
2023-04-20T22:02:47.948Z,20.45
2023-04-20T22:07:51.172Z,18.92
2023-04-20T22:12:53.017Z,19.45
2023-04-20T22:17:54.717Z,18.05
2023-04-20T22:22:57.374Z,19.08
2023-04-20T22:27:59.001Z,16.83
2023-04-20T22:33:00.676Z,17.85
2023-04-20T22:38:02.364Z,16.40
2023-04-20T22:43:04.271Z,15.25
2023-04-20T22:48:06.696Z,14.13
2023-04-20T22:53:08.331Z,15.68
2023-04-20T22:58:10.022Z,18.52
2023-04-20T23:03:11.794Z,16.67
2023-04-20T23:08:13.806Z,15.60
2023-04-20T23:13:18.242Z,17.80
2023-04-20T23:18:19.868Z,15.98
2023-04-20T23:23:21.464Z,19.60
2023-04-20T23:28:23.191Z,16.98
2023-04-20T23:33:24.941Z,17.73
2023-04-20T23:38:26.897Z,17.15
2023-04-20T23:43:28.553Z,17.25
2023-04-20T23:48:30.152Z,17.40
2023-04-20T23:53:35.852Z,18.60
2023-04-20T23:58:38.139Z,15.90
